createdAt,value
2023-02-13T00:01:45.749Z,18.37
2023-02-13T00:07:08.079Z,19.50
2023-02-13T00:12:31.000Z,24.53
2023-02-13T00:17:53.584Z,18.77
2023-02-13T00:23:17.577Z,20.87
2023-02-13T00:28:41.097Z,16.77
2023-02-13T00:34:03.686Z,21.17
2023-02-13T00:39:26.034Z,18.20
2023-02-13T00:44:48.325Z,19.00
2023-02-13T00:50:10.706Z,18.40
2023-02-13T00:55:33.871Z,17.85
2023-02-13T01:00:57.997Z,18.62
2023-02-13T01:06:20.703Z,20.45
2023-02-13T01:11:42.933Z,17.50
2023-02-13T01:17:05.367Z,16.90
2023-02-13T01:22:28.341Z,19.93
2023-02-13T01:27:51.002Z,18.80
2023-02-13T01:33:13.223Z,15.20
2023-02-13T01:38:35.909Z,14.13
2023-02-13T01:44:07.879Z,16.93
2023-02-13T01:49:38.749Z,16.67
2023-02-13T01:55:01.914Z,15.63
2023-02-13T02:00:27.548Z,19.07
2023-02-13T02:05:51.899Z,14.30
2023-02-13T02:11:18.798Z,15.00
2023-02-13T02:16:41.914Z,14.53
2023-02-13T02:22:17.997Z,14.07
2023-02-13T02:27:57.286Z,15.75
2023-02-13T02:33:50.300Z,17.87
2023-02-13T02:39:28.696Z,14.15
2023-02-13T02:45:13.907Z,12.63
2023-02-13T02:50:48.545Z,10.38
2023-02-13T02:56:34.777Z,8.63
2023-02-13T03:02:20.336Z,9.83
2023-02-13T03:07:45.874Z,11.40
2023-02-13T03:13:23.523Z,10.15
2023-02-13T03:19:08.665Z,10.28
2023-02-13T03:24:42.642Z,9.03
2023-02-13T03:30:17.177Z,10.32
2023-02-13T03:36:55.747Z,8.45
2023-02-13T03:42:24.868Z,7.45
2023-02-13T03:47:50.173Z,7.10
2023-02-13T03:53:18.080Z,7.13
2023-02-13T03:59:09.829Z,9.18
2023-02-13T04:04:55.921Z,9.43
2023-02-13T04:10:23.707Z,7.90
2023-02-13T04:16:10.618Z,9.53
2023-02-13T04:21:34.749Z,13.70
2023-02-13T04:27:00.449Z,9.33
2023-02-13T04:32:25.438Z,10.15
2023-02-13T04:37:49.381Z,12.55
2023-02-13T04:43:13.930Z,7.80
2023-02-13T04:48:38.891Z,9.10
2023-02-13T04:54:02.120Z,10.10
2023-02-13T04:59:26.832Z,13.13
2023-02-13T05:04:51.267Z,12.53
2023-02-13T05:10:16.676Z,10.82
2023-02-13T05:15:41.437Z,14.63
2023-02-13T05:21:23.836Z,18.67
2023-02-13T05:26:48.571Z,15.30
2023-02-13T05:32:13.918Z,13.72
2023-02-13T05:37:38.029Z,12.60
2023-02-13T05:43:02.412Z,15.72
2023-02-13T05:48:27.136Z,12.33
2023-02-13T05:53:50.530Z,13.90
2023-02-13T05:59:13.194Z,17.80
2023-02-13T06:04:37.203Z,17.23
2023-02-13T06:10:03.129Z,19.82
2023-02-13T06:15:26.941Z,22.60
2023-02-13T06:20:51.786Z,20.48
2023-02-13T06:26:20.220Z,27.75
2023-02-13T06:31:44.948Z,20.52
2023-02-13T06:37:09.634Z,22.42
2023-02-13T06:42:33.335Z,17.87
2023-02-13T06:47:58.687Z,17.05
2023-02-13T06:53:22.833Z,11.57
2023-02-13T06:58:46.596Z,15.68
2023-02-13T07:04:08.886Z,13.43
2023-02-13T07:09:31.237Z,12.10
2023-02-13T07:14:54.249Z,14.28
2023-02-13T07:20:17.876Z,16.23
2023-02-13T07:25:40.847Z,16.65
2023-02-13T07:31:03.617Z,12.90
2023-02-13T07:36:26.745Z,14.10
2023-02-13T07:41:49.053Z,11.57
2023-02-13T07:47:11.475Z,12.37
2023-02-13T07:52:33.869Z,10.93
2023-02-13T07:57:56.097Z,11.28
2023-02-13T08:03:18.880Z,8.83
2023-02-13T08:08:42.173Z,8.60
2023-02-13T08:14:04.464Z,10.83
2023-02-13T08:19:26.685Z,11.25
2023-02-13T08:24:49.018Z,10.20
2023-02-13T08:30:13.216Z,10.65
2023-02-13T08:35:36.111Z,8.03
2023-02-13T08:40:59.162Z,8.88
2023-02-13T08:46:22.639Z,12.65
2023-02-13T08:51:45.013Z,9.05
2023-02-13T08:57:09.420Z,9.88
2023-02-13T09:02:32.198Z,9.25
2023-02-13T09:07:54.452Z,9.78
2023-02-13T09:13:17.769Z,10.28
2023-02-13T09:18:41.200Z,7.87
2023-02-13T09:24:03.697Z,11.65
2023-02-13T09:29:25.898Z,7.78
2023-02-13T09:34:48.146Z,12.60
2023-02-13T09:40:10.465Z,9.33
2023-02-13T09:45:34.661Z,9.40
2023-02-13T09:50:58.089Z,9.43
2023-02-13T09:56:37.509Z,10.57
2023-02-13T10:02:02.768Z,11.03
2023-02-13T10:07:38.928Z,7.70
2023-02-13T10:13:32.616Z,9.05
2023-02-13T10:19:06.998Z,6.03
2023-02-13T10:24:34.759Z,6.97
2023-02-13T10:30:19.783Z,9.90
2023-02-13T10:35:56.758Z,8.57
2023-02-13T10:41:32.431Z,9.17
2023-02-13T10:47:22.122Z,9.07
2023-02-13T10:53:00.807Z,9.40
2023-02-13T10:58:49.066Z,7.30
2023-02-13T11:04:16.295Z,8.43
2023-02-13T11:09:40.999Z,8.27
2023-02-13T11:20:50.669Z,12.80
2023-02-13T11:26:23.930Z,6.87
2023-02-13T11:31:58.350Z,9.97
2023-02-13T11:37:36.989Z,6.33
2023-02-13T11:43:02.420Z,8.73
2023-02-13T11:48:30.643Z,6.33
2023-02-13T11:53:59.210Z,7.33
2023-02-13T11:59:22.988Z,9.60
2023-02-13T12:04:45.208Z,8.60
2023-02-13T12:10:24.971Z,7.13
2023-02-13T12:15:51.092Z,9.70
2023-02-13T12:21:44.945Z,9.17
2023-02-13T12:27:34.404Z,11.40
2023-02-13T12:39:14.800Z,8.50
2023-02-13T12:45:03.392Z,9.40
2023-02-13T12:50:54.703Z,8.20
2023-02-13T12:56:32.390Z,8.80
2023-02-13T13:02:32.567Z,6.73
2023-02-13T13:08:17.480Z,8.63
2023-02-13T13:14:26.208Z,8.83
2023-02-13T13:20:20.371Z,9.80
2023-02-13T13:26:08.448Z,7.30
2023-02-13T13:31:33.381Z,10.03
2023-02-13T13:43:12.738Z,8.60
2023-02-13T13:49:17.272Z,8.57
2023-02-13T13:54:43.824Z,6.53
2023-02-13T14:00:17.427Z,7.93
2023-02-13T14:05:43.476Z,8.07
2023-02-13T14:11:12.146Z,9.73
2023-02-13T14:16:53.117Z,7.40
2023-02-13T14:22:42.053Z,10.07
2023-02-13T14:28:11.545Z,9.80
2023-02-13T14:33:43.074Z,7.37
2023-02-13T14:39:12.624Z,8.60
2023-02-13T14:45:04.787Z,5.50
2023-02-13T14:50:34.566Z,7.95
2023-02-13T15:01:31.736Z,10.17
2023-02-13T15:07:02.911Z,9.00
2023-02-13T15:12:45.050Z,10.77
2023-02-13T15:18:10.611Z,6.13
2023-02-13T15:23:39.612Z,7.83
2023-02-13T15:29:35.222Z,7.37
2023-02-13T15:34:51.766Z,7.40
2023-02-13T15:40:28.916Z,9.43
2023-02-13T15:45:53.816Z,8.73
2023-02-13T15:51:17.085Z,6.55
2023-02-13T15:56:40.514Z,7.92
2023-02-13T16:02:05.765Z,6.00
2023-02-13T16:07:30.802Z,8.97
2023-02-13T16:12:54.958Z,7.60
2023-02-13T16:18:21.698Z,5.60
2023-02-13T16:23:44.625Z,7.97
2023-02-13T16:29:07.642Z,7.47
2023-02-13T16:34:42.685Z,9.93
2023-02-13T16:40:07.175Z,9.60
2023-02-13T16:45:46.124Z,8.95
2023-02-13T16:51:10.404Z,8.97
2023-02-13T16:56:32.886Z,7.67
2023-02-13T17:01:56.097Z,9.10
2023-02-13T17:07:21.238Z,9.93
2023-02-13T17:12:46.464Z,9.40
2023-02-13T17:18:09.118Z,8.88
2023-02-13T17:23:34.740Z,7.93
2023-02-13T17:28:57.131Z,9.90
2023-02-13T17:34:19.476Z,9.80
2023-02-13T17:39:41.676Z,13.77
2023-02-13T17:45:06.292Z,10.97
2023-02-13T17:50:30.881Z,11.80
2023-02-13T17:55:53.656Z,12.40
2023-02-13T18:01:17.065Z,12.03
2023-02-13T18:06:39.317Z,14.18
2023-02-13T18:12:05.588Z,10.53
2023-02-13T18:17:26.770Z,11.47
2023-02-13T18:28:21.922Z,18.43
2023-02-13T18:33:46.402Z,17.23
2023-02-13T18:39:10.058Z,11.77
2023-02-13T18:44:32.394Z,15.33
2023-02-13T18:49:54.620Z,13.20
2023-02-13T18:55:17.546Z,15.77
2023-02-13T19:00:40.063Z,12.20
2023-02-13T19:06:04.065Z,12.77
2023-02-13T19:11:29.647Z,12.95
2023-02-13T19:16:53.819Z,10.90
2023-02-13T19:22:16.693Z,17.48
2023-02-13T19:27:41.793Z,9.95
2023-02-13T19:33:08.152Z,13.90
2023-02-13T19:38:31.882Z,12.98
2023-02-13T19:43:54.745Z,14.25
2023-02-13T19:49:19.215Z,17.23
2023-02-13T19:54:42.189Z,15.50
2023-02-13T20:00:05.466Z,16.33
2023-02-13T20:05:28.617Z,21.40
2023-02-13T20:10:52.989Z,14.07
2023-02-13T20:16:19.583Z,11.35
2023-02-13T20:21:42.324Z,14.20
2023-02-13T20:27:04.832Z,13.33
2023-02-13T20:32:28.243Z,20.77
2023-02-13T20:37:51.651Z,15.50
2023-02-13T20:43:13.918Z,17.17
2023-02-13T20:48:36.889Z,19.37
2023-02-13T20:54:00.663Z,18.77
2023-02-13T20:59:24.538Z,18.23
2023-02-13T21:04:46.915Z,23.07
2023-02-13T21:10:10.569Z,23.95
2023-02-13T21:15:35.522Z,19.80
2023-02-13T21:20:58.255Z,12.73
2023-02-13T21:26:26.620Z,13.10
2023-02-13T21:31:52.486Z,18.42
2023-02-13T21:37:14.802Z,20.57
2023-02-13T21:42:37.103Z,17.00
2023-02-13T21:48:01.059Z,16.37
2023-02-13T21:53:24.842Z,17.43
2023-02-13T21:58:48.683Z,19.10
2023-02-13T22:04:14.075Z,14.93
2023-02-13T22:09:38.216Z,16.17
2023-02-13T22:15:01.743Z,16.47
2023-02-13T22:20:24.786Z,11.93
2023-02-13T22:25:49.637Z,13.83
2023-02-13T22:31:17.127Z,13.53
2023-02-13T22:36:40.874Z,18.30
2023-02-13T22:42:03.221Z,17.30
2023-02-13T22:47:25.440Z,16.73
2023-02-13T22:52:47.664Z,14.37
2023-02-13T22:58:10.921Z,17.32
2023-02-13T23:03:34.813Z,14.87
2023-02-13T23:08:58.378Z,17.90
2023-02-13T23:14:21.782Z,15.43
2023-02-13T23:19:46.565Z,14.60
2023-02-13T23:25:09.183Z,17.40
2023-02-13T23:30:33.233Z,16.70
2023-02-13T23:35:55.412Z,15.73
2023-02-13T23:41:20.719Z,14.43
2023-02-13T23:46:42.983Z,12.53
2023-02-13T23:52:06.189Z,12.13
2023-02-13T23:57:29.209Z,13.77
